createdAt,value
2022-09-03T00:03:16.325Z,101946.03
2022-09-03T00:07:28.392Z,101944.78
2022-09-03T00:12:00.241Z,101938.50
2022-09-03T00:16:10.242Z,101942.88
2022-09-03T00:20:42.642Z,101926.41
2022-09-03T00:24:46.140Z,101943.50
2022-09-03T00:28:54.691Z,101927.25
2022-09-03T00:33:32.982Z,101921.22
2022-09-03T00:37:38.083Z,101923.97
2022-09-03T00:41:54.166Z,101933.84
2022-09-03T00:46:30.744Z,101928.91
2022-09-03T00:50:55.654Z,101922.94
2022-09-03T00:55:11.841Z,101915.84
2022-09-03T00:59:38.499Z,101926.34
2022-09-03T01:04:21.610Z,101925.81
2022-09-03T01:08:59.958Z,101916.69
2022-09-03T01:13:15.716Z,101914.03
2022-09-03T01:17:33.585Z,101918.19
2022-09-03T01:22:00.197Z,101909.69
2022-09-03T01:26:29.449Z,101909.53
2022-09-03T01:30:35.891Z,101910.94
2022-09-03T01:35:03.027Z,101905.03
2022-09-03T01:39:08.975Z,101908.19
2022-09-03T01:43:22.561Z,101909.84
2022-09-03T01:48:01.692Z,101915.75
2022-09-03T01:52:12.601Z,101919.16
2022-09-03T01:56:51.501Z,101909.31
2022-09-03T02:01:03.697Z,101916.50
2022-09-03T02:05:09.136Z,101914.47
2022-09-03T02:09:10.592Z,101914.56
2022-09-03T02:13:17.189Z,101915.00
2022-09-03T02:17:19.219Z,101904.25
2022-09-03T02:21:22.995Z,101906.22
2022-09-03T02:25:30.753Z,101909.41
2022-09-03T02:29:33.161Z,101909.66
2022-09-03T02:33:40.361Z,101912.59
2022-09-03T02:37:41.881Z,101897.94
2022-09-03T02:41:43.956Z,101902.34
2022-09-03T02:45:53.770Z,101906.97
2022-09-03T02:49:55.271Z,101897.03
2022-09-03T02:53:56.716Z,101899.34
2022-09-03T02:57:58.170Z,101901.06
2022-09-03T03:02:00.984Z,101905.00
2022-09-03T03:06:05.700Z,101904.38
2022-09-03T03:10:07.866Z,101901.41
2022-09-03T03:14:09.596Z,101902.16
2022-09-03T03:18:14.526Z,101902.94
2022-09-03T03:22:16.164Z,101912.09
2022-09-03T03:26:19.878Z,101912.28
2022-09-03T03:30:21.402Z,101906.84
2022-09-03T03:34:22.848Z,101914.88
2022-09-03T03:38:24.414Z,101913.38
2022-09-03T03:42:25.884Z,101916.19
2022-09-03T03:46:33.195Z,101922.28
2022-09-03T03:50:34.662Z,101913.69
2022-09-03T03:54:36.178Z,101919.53
2022-09-03T03:58:42.344Z,101918.22
2022-09-03T04:02:43.928Z,101915.72
2022-09-03T04:06:45.516Z,101918.53
2022-09-03T04:10:47.387Z,101919.00
2022-09-03T04:14:48.872Z,101920.00
2022-09-03T04:18:51.030Z,101929.06
2022-09-03T04:22:52.585Z,101925.91
2022-09-03T04:26:54.594Z,101927.09
2022-09-03T04:31:01.427Z,101923.84
2022-09-03T04:35:02.968Z,101926.25
2022-09-03T04:39:04.502Z,101928.81
2022-09-03T04:43:06.329Z,101932.16
2022-09-03T04:47:07.857Z,101932.84
2022-09-03T04:51:15.349Z,101929.03
2022-09-03T04:55:17.011Z,101933.97
2022-09-03T04:59:18.452Z,101935.97
2022-09-03T05:03:21.994Z,101936.69
2022-09-03T05:07:23.467Z,101940.91
2022-09-03T05:11:26.356Z,101934.84
2022-09-03T05:15:29.506Z,101945.47
2022-09-03T05:19:31.681Z,101945.41
2022-09-03T05:23:44.894Z,101943.75
2022-09-03T05:27:46.894Z,101938.00
2022-09-03T05:31:48.426Z,101945.91
2022-09-03T05:35:50.039Z,101946.16
2022-09-03T05:39:51.536Z,101947.59
2022-09-03T05:43:59.162Z,101944.94
2022-09-03T05:48:01.715Z,101952.59
2022-09-03T05:52:03.265Z,101955.50
2022-09-03T05:56:13.570Z,101951.84
2022-09-03T06:00:15.297Z,101954.22
2022-09-03T06:04:16.968Z,101947.50
2022-09-03T06:08:19.127Z,101949.13
2022-09-03T06:12:20.621Z,101947.28
2022-09-03T06:16:30.644Z,101943.50
2022-09-03T06:20:37.221Z,101949.69
2022-09-03T06:24:38.999Z,101960.31
2022-09-03T06:28:45.387Z,101961.63
2022-09-03T06:32:47.369Z,101958.59
2022-09-03T06:36:48.981Z,101954.59
2022-09-03T06:41:02.139Z,101959.63
2022-09-03T06:45:04.148Z,101960.25
2022-09-03T06:49:05.989Z,101964.13
2022-09-03T06:53:07.582Z,101970.06
2022-09-03T06:57:09.270Z,101966.47
2022-09-03T07:01:19.590Z,101965.41
2022-09-03T07:05:21.690Z,101974.41
2022-09-03T07:09:23.116Z,101967.88
2022-09-03T07:13:25.758Z,101964.41
2022-09-03T07:17:27.224Z,101957.09
2022-09-03T07:21:30.388Z,101962.00
2022-09-03T07:25:32.012Z,101961.22
2022-09-03T07:29:33.451Z,101965.13
2022-09-03T07:33:34.976Z,101969.41
2022-09-03T07:37:36.471Z,101965.44
2022-09-03T07:41:38.931Z,101975.25
2022-09-03T07:45:41.220Z,101970.50
2022-09-03T07:49:42.647Z,101972.97
2022-09-03T07:53:45.687Z,101971.81
2022-09-03T07:57:47.157Z,101968.28
2022-09-03T08:01:48.589Z,101973.72
2022-09-03T08:05:50.119Z,101970.19
2022-09-03T08:09:51.597Z,101978.63
2022-09-03T08:14:02.919Z,101979.94
2022-09-03T08:18:05.910Z,101982.41
2022-09-03T08:22:07.988Z,101987.78
2022-09-03T08:26:10.797Z,101979.56
2022-09-03T08:30:12.413Z,101980.47
2022-09-03T08:34:14.774Z,101983.88
2022-09-03T08:38:16.684Z,101980.56
2022-09-03T08:42:48.018Z,101983.22
2022-09-03T08:46:55.717Z,101985.13
2022-09-03T08:50:59.953Z,101992.56
2022-09-03T08:55:26.286Z,101978.81
2022-09-03T08:59:31.810Z,101971.75
2022-09-03T09:03:46.670Z,101977.56
2022-09-03T09:08:01.323Z,101979.53
2022-09-03T09:12:28.725Z,101978.38
2022-09-03T09:17:02.177Z,101980.56
2022-09-03T09:21:20.993Z,101977.34
2022-09-03T09:25:26.205Z,101968.16
2022-09-03T09:29:36.042Z,101965.31
2022-09-03T09:33:37.663Z,101965.69
2022-09-03T09:37:55.387Z,101961.91
2022-09-03T09:42:05.349Z,101954.41
2022-09-03T09:46:15.893Z,101956.69
2022-09-03T09:50:25.078Z,101956.97
2022-09-03T09:54:28.189Z,101953.41
2022-09-03T09:58:32.180Z,101952.56
2022-09-03T10:02:35.344Z,101954.41
2022-09-03T10:06:56.735Z,101944.78
2022-09-03T10:10:58.841Z,101939.50
2022-09-03T10:15:11.503Z,101940.44
2022-09-03T10:19:18.322Z,101937.16
2022-09-03T10:23:19.769Z,101946.63
2022-09-03T10:27:22.265Z,101934.91
2022-09-03T10:31:57.366Z,101927.19
2022-09-03T10:36:12.447Z,101934.63
2022-09-03T10:40:37.652Z,101921.38
2022-09-03T10:45:06.892Z,101932.19
2022-09-03T10:49:37.488Z,101909.44
2022-09-03T10:54:09.639Z,101921.88
2022-09-03T10:58:46.100Z,101913.91
2022-09-03T11:03:26.389Z,101902.75
2022-09-03T11:07:37.633Z,101910.13
2022-09-03T11:11:55.573Z,101894.22
2022-09-03T11:16:13.801Z,101895.78
2022-09-03T11:20:21.811Z,101894.97
2022-09-03T11:24:27.379Z,101893.13
2022-09-03T11:28:45.377Z,101891.16
2022-09-03T11:32:55.536Z,101885.56
2022-09-03T11:37:24.738Z,101892.34
2022-09-03T11:41:28.855Z,101884.41
2022-09-03T11:45:39.909Z,101887.28
2022-09-03T11:49:47.042Z,101872.09
2022-09-03T11:54:02.110Z,101861.59
2022-09-03T11:58:34.686Z,101866.50
2022-09-03T12:02:38.945Z,101863.09
2022-09-03T12:07:14.698Z,101862.69
2022-09-03T12:11:58.168Z,101859.31
2022-09-03T12:16:18.498Z,101863.38
2022-09-03T12:20:23.543Z,101870.34
2022-09-03T12:24:33.624Z,101870.97
2022-09-03T12:28:41.550Z,101869.47
2022-09-03T12:32:47.405Z,101853.72
2022-09-03T12:36:54.412Z,101847.88
2022-09-03T12:45:24.045Z,101851.34
2022-09-03T12:49:30.234Z,101834.22
2022-09-03T12:53:33.213Z,101826.06
2022-09-03T12:57:43.983Z,101826.69
2022-09-03T13:01:50.589Z,101834.41
2022-09-03T13:05:59.454Z,101824.38
2022-09-03T13:10:06.848Z,101830.91
2022-09-03T13:14:11.114Z,101821.25
2022-09-03T13:18:27.955Z,101822.84
2022-09-03T13:22:58.447Z,101817.72
2022-09-03T13:27:21.286Z,101816.28
2022-09-03T13:31:47.080Z,101809.09
2022-09-03T13:36:16.519Z,101810.81
2022-09-03T13:40:29.364Z,101808.22
2022-09-03T13:44:50.311Z,101809.03
2022-09-03T13:49:18.399Z,101803.47
2022-09-03T13:53:43.478Z,101796.78
2022-09-03T13:58:01.042Z,101804.28
2022-09-03T14:02:28.638Z,101797.19
2022-09-03T14:06:49.550Z,101796.66
2022-09-03T14:11:23.464Z,101795.09
2022-09-03T14:15:34.773Z,101794.81
2022-09-03T14:19:52.788Z,101795.47
2022-09-03T14:24:26.588Z,101796.63
2022-09-03T14:28:36.986Z,101799.88
2022-09-03T14:32:42.390Z,101797.72
2022-09-03T14:37:01.692Z,101794.63
2022-09-03T14:41:05.738Z,101803.00
2022-09-03T14:45:18.567Z,101790.19
2022-09-03T14:49:45.241Z,101783.53
2022-09-03T14:53:56.710Z,101783.72
2022-09-03T14:58:00.699Z,101778.06
2022-09-03T15:02:17.366Z,101789.84
2022-09-03T15:06:57.636Z,101787.06
2022-09-03T15:11:02.017Z,101781.09
2022-09-03T15:15:30.075Z,101775.94
2022-09-03T15:19:50.319Z,101779.88
2022-09-03T15:24:27.692Z,101784.97
2022-09-03T15:28:48.204Z,101794.31
2022-09-03T15:32:55.729Z,101796.66
2022-09-03T15:37:01.832Z,101795.72
2022-09-03T15:41:29.748Z,101787.13
2022-09-03T15:45:34.978Z,101801.56
2022-09-03T15:49:48.390Z,101792.06
2022-09-03T15:53:56.935Z,101796.47
2022-09-03T15:58:09.334Z,101803.38
2022-09-03T16:02:18.274Z,101801.84
2022-09-03T16:06:58.618Z,101807.91
2022-09-03T16:11:16.419Z,101800.19
2022-09-03T16:15:23.400Z,101797.41
2022-09-03T16:19:41.737Z,101797.28
2022-09-03T16:23:52.463Z,101794.56
2022-09-03T16:28:14.864Z,101801.31
2022-09-03T16:32:23.342Z,101801.78
2022-09-03T16:36:47.875Z,101803.19
2022-09-03T16:41:03.452Z,101813.34
2022-09-03T16:45:29.521Z,101809.97
2022-09-03T16:49:43.248Z,101814.25
2022-09-03T16:54:04.464Z,101807.84
2022-09-03T16:58:22.056Z,101808.22
2022-09-03T17:02:52.290Z,101807.16
2022-09-03T17:07:07.165Z,101811.56
2022-09-03T17:11:15.574Z,101813.34
2022-09-03T17:15:40.140Z,101802.66
2022-09-03T17:20:01.040Z,101812.97
2022-09-03T17:24:21.373Z,101816.19
2022-09-03T17:28:49.692Z,101810.63
2022-09-03T17:33:05.401Z,101813.31
2022-09-03T17:37:37.848Z,101819.44
2022-09-03T17:41:56.700Z,101825.94
2022-09-03T17:46:35.919Z,101832.41
2022-09-03T17:51:04.836Z,101838.84
2022-09-03T17:55:21.882Z,101843.53
2022-09-03T17:59:51.959Z,101846.00
2022-09-03T18:04:05.152Z,101848.34
2022-09-03T18:08:18.183Z,101850.09
2022-09-03T18:12:25.301Z,101847.19
2022-09-03T18:16:29.813Z,101860.34
2022-09-03T18:21:30.669Z,101869.03
2022-09-03T18:25:53.625Z,101861.81
2022-09-03T18:30:26.765Z,101877.75
2022-09-03T18:34:54.712Z,101876.88
2022-09-03T18:39:33.427Z,101881.38
2022-09-03T18:44:01.551Z,101883.97
2022-09-03T18:48:35.318Z,101880.41
2022-09-03T18:53:18.142Z,101879.81
2022-09-03T18:57:50.151Z,101882.13
2022-09-03T19:02:12.417Z,101883.78
2022-09-03T19:06:54.652Z,101894.34
2022-09-03T19:11:36.792Z,101892.19
2022-09-03T19:16:08.076Z,101896.25
2022-09-03T19:20:44.573Z,101889.88
2022-09-03T19:25:12.764Z,101890.09
2022-09-03T19:30:02.395Z,101897.09
2022-09-03T19:34:42.443Z,101892.59
2022-09-03T19:39:18.280Z,101897.47
2022-09-03T19:44:04.078Z,101901.00
2022-09-03T19:48:55.059Z,101905.44
2022-09-03T19:53:19.984Z,101909.25
2022-09-03T19:57:40.736Z,101916.97
2022-09-03T20:02:02.214Z,101914.31
2022-09-03T20:06:25.344Z,101910.53
2022-09-03T20:10:27.873Z,101928.53
2022-09-03T20:14:33.309Z,101926.88
2022-09-03T20:18:52.179Z,101920.09
2022-09-03T20:23:01.266Z,101922.72
2022-09-03T20:27:35.072Z,101926.09
2022-09-03T20:31:58.885Z,101929.19
2022-09-03T20:36:21.879Z,101923.09
2022-09-03T20:40:29.874Z,101930.72
2022-09-03T20:44:57.164Z,101931.38
2022-09-03T20:49:08.259Z,101929.59
2022-09-03T20:53:43.856Z,101926.03
2022-09-03T20:57:55.921Z,101916.63
2022-09-03T21:02:06.832Z,101916.75
2022-09-03T21:06:45.964Z,101928.47
2022-09-03T21:10:56.203Z,101924.97
2022-09-03T21:15:04.893Z,101923.66
2022-09-03T21:19:09.509Z,101926.63
2022-09-03T21:23:22.511Z,101918.56
2022-09-03T21:27:29.676Z,101932.78
2022-09-03T21:31:38.667Z,101934.94
2022-09-03T21:36:25.816Z,101944.63
2022-09-03T21:40:31.218Z,101943.66
2022-09-03T21:44:40.151Z,101941.13
2022-09-03T21:49:10.992Z,101935.72
2022-09-03T21:53:20.256Z,101939.41
2022-09-03T21:57:53.796Z,101944.38
2022-09-03T22:02:09.227Z,101945.22
2022-09-03T22:06:17.664Z,101947.03
2022-09-03T22:10:31.844Z,101945.13
2022-09-03T22:14:46.288Z,101947.75
2022-09-03T22:18:50.196Z,101944.53
2022-09-03T22:23:10.239Z,101950.88
2022-09-03T22:27:22.404Z,101955.53
2022-09-03T22:31:37.920Z,101950.75
2022-09-03T22:35:49.801Z,101949.66
2022-09-03T22:39:56.251Z,101949.91
2022-09-03T22:44:32.085Z,101950.69
2022-09-03T22:48:48.431Z,101951.53
2022-09-03T22:53:20.089Z,101957.44
2022-09-03T22:57:25.557Z,101953.03
2022-09-03T23:01:45.136Z,101956.09
2022-09-03T23:05:54.184Z,101954.88
2022-09-03T23:10:10.173Z,101957.78
2022-09-03T23:14:18.429Z,101958.81
2022-09-03T23:18:26.898Z,101960.56
2022-09-03T23:22:36.176Z,101953.81
2022-09-03T23:26:42.509Z,101964.84
2022-09-03T23:30:44.113Z,101956.50
2022-09-03T23:34:45.605Z,101950.66
2022-09-03T23:39:02.645Z,101951.72
2022-09-03T23:43:10.074Z,101959.44
2022-09-03T23:47:21.826Z,101963.38
2022-09-03T23:51:51.675Z,101976.34
2022-09-03T23:56:13.226Z,101975.28
